Time,TemperatureF,DewpointF,PressureIn,WindDirection,WindDirectionDegrees,WindSpeedMPH,WindSpeedGustMPH,Humidity,HourlyPrecipIn,Conditions,Clouds,dailyrainin,SolarRadiationWatts/m^2,SoftwareType,DateUTC
2013-03-19 00:00:00,35.1,28.9,29.65,WNW,292,6.7,12.7,78,0.00,RA,OVC,0.00,0.0,WeatherDisplay:10.37,2013-03-19 04:00:00,
2013-03-19 00:05:00,34.9,28.4,29.65,WSW,248,7.8,15.0,77,0.00,RA,OVC,0.00,0.0,WeatherDisplay:10.37,2013-03-19 04:05:00,
2013-03-19 00:10:00,34.9,28.4,29.68,WSW,248,11.4,19.6,77,0.00,OVC,,0.00,0.0,WeatherDisplay:10.37,2013-03-19 04:10:00,
2013-03-19 00:15:00,35.1,28.6,29.68,SW,225,7.4,8.1,77,0.00,OVC,,0.00,0.0,WeatherDisplay:10.37,2013-03-19 04:15:00,
2013-03-19 00:20:00,35.1,28.6,29.68,SW,225,9.8,12.7,77,0.00,OVC,,0.00,0.0,WeatherDisplay:10.37,2013-03-19 04:20:00,
2013-03-19 00:25:00,34.9,28.1,29.65,WNW,292,8.7,12.7,76,0.00,OVC,,0.00,0.0,WeatherDisplay:10.37,2013-03-19 04:25:00,
2013-03-19 00:30:00,34.9,28.1,29.65,West,270,8.7,15.0,76,0.00,OVC,,0.00,0.0,WeatherDisplay:10.37,2013-03-19 04:30:00,
2013-03-19 00:35:00,34.9,28.1,29.65,WSW,248,4.3,7.8,76,0.00,OVC,,0.00,0.0,WeatherDisplay:10.37,2013-03-19 04:35:00,
2013-03-19 00:40:00,34.9,28.1,29.65,WSW,248,5.9,8.5,76,0.00,OVC,,0.00,0.0,WeatherDisplay:10.37,2013-03-19 04:40:00,
2013-03-19 00:45:00,34.9,28.1,29.65,SW,225,7.4,9.2,76,0.00,OVC,,0.00,0.0,WeatherDisplay:10.37,2013-03-19 04:45:00,
2013-03-19 00:50:00,34.9,28.1,29.65,SSW,202,6.9,8.1,76,0.00,OVC,,0.00,0.0,WeatherDisplay:10.37,2013-03-19 04:50:00,
2013-03-19 00:55:00,34.9,28.1,29.62,WNW,292,5.6,9.2,76,0.00,OVC,,0.00,0.0,WeatherDisplay:10.37,2013-03-19 04:55:00,
2013-03-19 01:00:00,34.9,28.1,29.62,SW,225,6.7,10.0,76,0.00,OVC,,0.00,0.0,WeatherDisplay:10.37,2013-03-19 05:00:00,
2013-03-19 01:05:00,34.7,28.2,29.62,WSW,248,5.9,5.9,77,0.00,OVC,,0.00,0.0,WeatherDisplay:10.37,2013-03-19 05:05:00,
2013-03-19 01:10:00,34.7,28.2,29.62,SSW,202,4.7,6.9,77,0.00,OVC,,0.00,0.0,WeatherDisplay:10.37,2013-03-19 05:10:00,
2013-03-19 01:15:00,34.7,28.2,29.62,SW,225,8.1,8.1,77,0.00,OVC,,0.00,0.0,WeatherDisplay:10.37,2013-03-19 05:15:00,
2013-03-19 01:20:00,34.7,28.2,29.62,SW,225,8.5,10.4,77,0.00,OVC,,0.00,0.0,WeatherDisplay:10.37,2013-03-19 05:20:00,
2013-03-19 01:25:00,34.7,28.2,29.62,WSW,248,6.2,11.5,77,0.00,OVC,,0.00,0.0,WeatherDisplay:10.37,2013-03-19 05:25:00,
2013-03-19 01:31:00,34.7,28.2,29.62,WSW,248,9.2,11.5,77,0.04,RA,OVC,0.04,0.0,WeatherDisplay:10.37,2013-03-19 05:31:00,
2013-03-19 01:36:00,34.7,28.2,29.62,SW,225,6.4,10.4,77,0.04,RA,OVC,0.04,0.0,WeatherDisplay:10.37,2013-03-19 05:36:00,
2013-03-19 01:41:00,34.7,27.9,29.62,WSW,248,7.8,12.7,76,0.04,OVC,,0.04,0.0,WeatherDisplay:10.37,2013-03-19 05:41:00,
2013-03-19 01:46:00,34.9,28.1,29.62,SSW,202,8.7,10.4,76,0.04,OVC,,0.04,0.0,WeatherDisplay:10.37,2013-03-19 05:46:00,
2013-03-19 01:51:00,34.9,28.1,29.62,WSW,248,11.4,17.3,76,0.04,OVC,,0.04,0.0,WeatherDisplay:10.37,2013-03-19 05:51:00,
2013-03-19 01:56:00,34.7,27.9,29.62,WSW,248,10.2,12.7,76,0.04,OVC,,0.04,0.0,WeatherDisplay:10.37,2013-03-19 05:56:00,
2013-03-19 02:01:00,34.7,27.9,29.62,SW,225,9.8,17.3,76,0.04,OVC,,0.04,0.0,WeatherDisplay:10.37,2013-03-19 06:01:00,
2013-03-19 02:06:00,34.5,27.1,29.62,WSW,248,18.7,31.1,74,0.04,OVC,,0.04,0.0,WeatherDisplay:10.37,2013-03-19 06:06:00,
2013-03-19 02:11:00,34.5,26.8,29.62,SW,225,13.0,15.2,73,0.04,OVC,,0.04,0.0,WeatherDisplay:10.37,2013-03-19 06:11:00,
2013-03-19 02:16:00,34.5,26.4,29.62,WNW,292,9.7,19.7,72,0.04,OVC,,0.04,0.0,WeatherDisplay:10.37,2013-03-19 06:16:00,
2013-03-19 02:21:00,34.3,25.9,29.62,West,270,9.0,14.0,71,0.04,OVC,,0.04,0.0,WeatherDisplay:10.37,2013-03-19 06:21:00,
2013-03-19 02:26:00,34.2,25.4,29.62,WNW,292,15.6,23.9,70,0.04,OVC,,0.04,0.0,WeatherDisplay:10.37,2013-03-19 06:26:00,
2013-03-19 02:31:00,33.8,25.0,29.62,West,270,15.4,18.4,70,0.00,OVC,,0.04,0.0,WeatherDisplay:10.37,2013-03-19 06:31:00,
2013-03-19 02:36:00,33.4,24.4,29.62,WSW,248,12.1,19.6,69,0.00,OVC,,0.04,0.0,WeatherDisplay:10.37,2013-03-19 06:36:00,
2013-03-19 02:41:00,33.3,23.8,29.65,WSW,248,13.5,15.0,68,0.00,OVC,,0.04,0.0,WeatherDisplay:10.37,2013-03-19 06:41:00,
2013-03-19 02:47:00,32.9,23.1,29.65,WSW,248,10.7,15.0,67,0.00,OVC,,0.04,0.0,WeatherDisplay:10.37,2013-03-19 06:47:00,
2013-03-19 02:52:00,32.5,22.4,29.65,WSW,248,14.0,23.0,66,0.00,OVC,,0.04,0.0,WeatherDisplay:10.37,2013-03-19 06:52:00,
2013-03-19 02:57:00,32.5,22.4,29.65,West,270,6.9,12.7,66,0.00,OVC,,0.04,0.0,WeatherDisplay:10.37,2013-03-19 06:57:00,
2013-03-19 03:02:00,32.4,21.9,29.65,WSW,248,11.4,23.0,65,0.00,OVC,,0.04,0.0,WeatherDisplay:10.37,2013-03-19 07:02:00,
2013-03-19 03:07:00,32.0,21.2,29.65,NNW,338,11.8,19.6,64,0.00,OVC,,0.04,0.0,WeatherDisplay:10.37,2013-03-19 07:07:00,
2013-03-19 03:12:00,31.6,20.8,29.65,WSW,248,11.2,15.0,64,0.00,OVC,,0.04,0.0,WeatherDisplay:10.37,2013-03-19 07:12:00,
2013-03-19 03:17:00,31.5,20.3,29.65,West,270,12.8,23.0,63,0.00,OVC,,0.04,4.5,WeatherDisplay:10.37,2013-03-19 07:17:00,
2013-03-19 03:22:00,31.3,20.1,29.65,West,270,10.5,15.2,63,0.00,OVC,,0.04,5.1,WeatherDisplay:10.37,2013-03-19 07:22:00,
2013-03-19 03:27:00,31.1,20.0,29.65,WSW,248,15.2,17.3,63,0.00,OVC,,0.04,0.0,WeatherDisplay:10.37,2013-03-19 07:27:00,
2013-03-19 03:32:00,30.9,19.8,29.65,West,270,13.7,17.3,63,0.00,OVC,,0.04,0.0,WeatherDisplay:10.37,2013-03-19 07:32:00,
2013-03-19 03:37:00,30.7,19.6,29.65,WNW,292,12.1,13.8,63,0.00,OVC,,0.04,0.0,WeatherDisplay:10.37,2013-03-19 07:37:00,
2013-03-19 03:42:00,30.2,19.1,29.65,ESE,112,17.5,29.9,63,0.00,OVC,,0.04,0.0,WeatherDisplay:10.37,2013-03-19 07:42:00,
2013-03-19 03:47:00,30.0,18.6,29.65,West,270,12.3,17.3,62,0.00,OVC,,0.04,0.0,WeatherDisplay:10.37,2013-03-19 07:47:00,
2013-03-19 03:52:00,29.8,18.4,29.65,WSW,248,12.5,15.0,62,0.00,OVC,,0.04,0.0,WeatherDisplay:10.37,2013-03-19 07:52:00,
2013-03-19 03:57:00,29.7,18.2,29.65,West,270,15.2,19.6,62,0.00,OVC,,0.04,0.0,WeatherDisplay:10.37,2013-03-19 07:57:00,
2013-03-19 04:02:00,29.5,18.1,29.65,WNW,292,12.8,24.2,62,0.00,OVC,,0.04,0.0,WeatherDisplay:10.37,2013-03-19 08:02:00,
2013-03-19 04:07:00,29.3,17.9,29.65,West,270,14.5,17.3,62,0.00,OVC,,0.04,0.0,WeatherDisplay:10.37,2013-03-19 08:07:00,
2013-03-19 04:12:00,28.9,17.2,29.68,SW,225,11.8,17.3,61,0.00,OVC,,0.04,0.0,WeatherDisplay:10.37,2013-03-19 08:12:00,
2013-03-19 04:17:00,28.8,16.6,29.68,WSW,248,10.9,24.2,60,0.00,OVC,,0.04,0.0,WeatherDisplay:10.37,2013-03-19 08:17:00,
2013-03-19 04:22:00,28.6,16.8,29.68,WNW,292,8.5,12.7,61,0.00,OVC,,0.04,0.0,WeatherDisplay:10.37,2013-03-19 08:22:00,
2013-03-19 04:27:00,28.6,16.8,29.68,SSW,202,14.5,18.4,61,0.00,OVC,,0.04,0.0,WeatherDisplay:10.37,2013-03-19 08:27:00,
2013-03-19 04:32:00,28.2,16.1,29.68,WNW,292,12.5,27.6,60,0.00,OVC,,0.04,0.0,WeatherDisplay:10.37,2013-03-19 08:32:00,
2013-03-19 04:37:00,28.0,15.5,29.68,WNW,292,11.2,19.0,59,0.00,OVC,,0.04,0.0,WeatherDisplay:10.37,2013-03-19 08:37:00,
2013-03-19 04:43:00,27.7,14.8,29.68,WSW,248,13.8,17.3,58,0.00,OVC,,0.04,0.0,WeatherDisplay:10.37,2013-03-19 08:43:00,
2013-03-19 04:48:00,27.7,15.2,29.68,NW,315,6.2,8.1,59,0.00,OVC,,0.04,0.0,WeatherDisplay:10.37,2013-03-19 08:48:00,
2013-03-19 04:53:00,27.5,15.0,29.68,WSW,248,9.8,13.8,59,0.00,OVC,,0.04,0.0,WeatherDisplay:10.37,2013-03-19 08:53:00,
2013-03-19 04:58:00,27.5,15.0,29.68,WNW,292,7.1,14.5,59,0.00,OVC,,0.04,0.0,WeatherDisplay:10.37,2013-03-19 08:58:00,
2013-03-19 05:03:00,27.3,14.9,29.68,WNW,292,9.2,9.2,59,0.00,OVC,,0.04,0.0,WeatherDisplay:10.37,2013-03-19 09:03:00,
2013-03-19 05:08:00,27.3,15.2,29.71,WSW,248,7.4,9.2,60,0.00,OVC,,0.04,0.0,WeatherDisplay:10.37,2013-03-19 09:08:00,
2013-03-19 05:13:00,27.5,15.8,29.71,WSW,248,5.4,8.1,61,0.00,OVC,,0.04,0.0,WeatherDisplay:10.37,2013-03-19 09:13:00,
2013-03-19 05:18:00,27.5,16.2,29.71,WSW,248,6.2,10.4,62,0.00,OVC,,0.04,0.0,WeatherDisplay:10.37,2013-03-19 09:18:00,
2013-03-19 05:23:00,27.5,16.2,29.71,WSW,248,3.8,6.9,62,0.00,OVC,,0.04,0.0,WeatherDisplay:10.37,2013-03-19 09:23:00,
2013-03-19 05:28:00,27.7,16.3,29.71,WNW,292,4.9,9.2,62,0.00,OVC,,0.04,0.0,WeatherDisplay:10.37,2013-03-19 09:28:00,
2013-03-19 05:33:00,27.5,16.2,29.71,WSW,248,9.8,15.0,62,0.00,OVC,,0.04,0.0,WeatherDisplay:10.37,2013-03-19 09:33:00,
2013-03-19 05:38:00,27.5,16.2,29.71,SW,225,8.7,12.7,62,0.00,OVC,,0.04,0.0,WeatherDisplay:10.37,2013-03-19 09:38:00,
2013-03-19 05:43:00,27.5,16.2,29.71,WSW,248,7.4,10.4,62,0.00,OVC,,0.04,0.0,WeatherDisplay:10.37,2013-03-19 09:43:00,
2013-03-19 05:48:00,27.3,16.4,29.71,WNW,292,14.3,17.3,63,0.00,OVC,,0.04,0.0,WeatherDisplay:10.37,2013-03-19 09:48:00,
2013-03-19 05:53:00,27.3,16.0,29.68,WNW,292,8.5,11.5,62,0.00,OVC,,0.04,0.0,WeatherDisplay:10.37,2013-03-19 09:53:00,
2013-03-19 05:58:00,27.1,15.8,29.68,West,270,10.9,21.9,62,0.00,OVC,,0.04,0.0,WeatherDisplay:10.37,2013-03-19 09:58:00,
2013-03-19 06:03:00,27.0,15.7,29.68,SW,225,13.2,17.3,62,0.00,-SN,OVC,0.04,0.0,WeatherDisplay:10.37,2013-03-19 10:03:00,
2013-03-19 06:08:00,26.8,15.5,29.71,WSW,248,8.1,19.9,62,0.00,-SN,OVC,0.04,0.0,WeatherDisplay:10.37,2013-03-19 10:08:00,
2013-03-19 06:13:00,26.4,14.4,29.71,WSW,248,12.3,17.0,60,0.00,-SN,OVC,0.04,0.0,WeatherDisplay:10.37,2013-03-19 10:13:00,
2013-03-19 06:18:00,26.2,13.5,29.71,WSW,248,10.9,12.7,58,0.00,-SN,OVC,0.04,36.0,WeatherDisplay:10.37,2013-03-19 10:18:00,
2013-03-19 06:23:00,26.1,12.9,29.71,West,270,11.4,16.1,57,0.00,-SN,OVC,0.04,37.2,WeatherDisplay:10.37,2013-03-19 10:23:00,
2013-03-19 06:28:00,26.1,12.5,29.71,WSW,248,9.2,13.8,56,0.00,-SN,OVC,0.04,0.0,WeatherDisplay:10.37,2013-03-19 10:28:00,
2013-03-19 06:33:00,26.1,12.5,29.71,WSW,248,7.6,12.7,56,0.00,-SN,OVC,0.04,37.9,WeatherDisplay:10.37,2013-03-19 10:33:00,
2013-03-19 06:39:00,26.1,12.5,29.74,SW,225,9.7,11.5,56,0.00,-SN,OVC,0.04,0.0,WeatherDisplay:10.37,2013-03-19 10:39:00,
2013-03-19 06:44:00,25.9,12.3,29.74,West,270,8.5,10.5,56,0.00,-SN,OVC,0.04,0.0,WeatherDisplay:10.37,2013-03-19 10:44:00,
2013-03-19 06:49:00,25.9,12.3,29.74,SW,225,12.3,19.6,56,0.00,-SN,OVC,0.04,0.0,WeatherDisplay:10.37,2013-03-19 10:49:00,
2013-03-19 06:54:00,25.7,12.6,29.74,WSW,248,10.5,15.0,57,0.00,-SN,OVC,0.04,0.0,WeatherDisplay:10.37,2013-03-19 10:54:00,
2013-03-19 06:59:00,25.5,12.4,29.74,WNW,292,12.5,16.1,57,0.00,-SN,OVC,0.04,0.0,WeatherDisplay:10.37,2013-03-19 10:59:00,
2013-03-19 07:04:00,25.3,12.2,29.74,WNW,292,10.7,12.7,57,0.00,OVC,,0.04,0.0,WeatherDisplay:10.37,2013-03-19 11:04:00,
2013-03-19 07:09:00,25.5,12.4,29.74,West,270,10.9,15.2,57,0.00,OVC,,0.04,0.0,WeatherDisplay:10.37,2013-03-19 11:09:00,
2013-03-19 07:14:00,25.3,12.2,29.74,WSW,248,15.4,20.7,57,0.00,OVC,,0.04,0.0,WeatherDisplay:10.37,2013-03-19 11:14:00,
2013-03-19 07:19:00,25.3,12.2,29.74,WSW,248,10.0,17.3,57,0.00,OVC,,0.04,0.0,WeatherDisplay:10.37,2013-03-19 11:19:00,
2013-03-19 07:24:00,25.3,12.6,29.77,West,270,12.5,19.6,58,0.00,OVC,,0.04,0.0,WeatherDisplay:10.37,2013-03-19 11:24:00,
2013-03-19 07:29:00,25.3,12.6,29.77,WSW,248,10.7,15.0,58,0.00,OVC,,0.04,0.0,WeatherDisplay:10.37,2013-03-19 11:29:00,
2013-03-19 07:34:00,25.3,12.6,29.77,WSW,248,14.0,23.0,58,0.00,OVC,,0.04,0.0,WeatherDisplay:10.37,2013-03-19 11:34:00,
2013-03-19 07:39:00,25.3,12.6,29.77,WSW,248,10.2,13.2,58,0.00,OVC,,0.04,0.0,WeatherDisplay:10.37,2013-03-19 11:39:00,
2013-03-19 07:44:00,25.3,12.6,29.77,WSW,248,7.8,13.8,58,0.00,OVC,,0.04,0.0,WeatherDisplay:10.37,2013-03-19 11:44:00,
2013-03-19 07:49:00,25.3,12.6,29.77,SW,225,12.3,17.3,58,0.00,OVC,,0.04,0.0,WeatherDisplay:10.37,2013-03-19 11:49:00,
2013-03-19 07:54:00,25.2,12.4,29.77,West,270,9.8,10.4,58,0.00,OVC,,0.04,0.0,WeatherDisplay:10.37,2013-03-19 11:54:00,
2013-03-19 07:59:00,25.3,13.0,29.77,SSW,202,8.7,12.7,59,0.00,OVC,,0.04,0.0,WeatherDisplay:10.37,2013-03-19 11:59:00,
2013-03-19 08:04:00,25.3,13.4,29.77,WSW,248,12.3,17.3,60,0.00,-SN,OVC,0.04,0.0,WeatherDisplay:10.37,2013-03-19 12:04:00,
2013-03-19 08:09:00,25.2,12.8,29.77,West,270,14.3,20.7,59,0.00,-SN,OVC,0.04,0.0,WeatherDisplay:10.37,2013-03-19 12:09:00,
2013-03-19 08:14:00,25.0,13.0,29.77,WSW,248,13.0,15.0,60,0.00,-SN,OVC,0.04,0.0,WeatherDisplay:10.37,2013-03-19 12:14:00,
2013-03-19 08:19:00,24.6,12.3,29.77,WSW,248,11.4,15.0,59,0.00,-SN,OVC,0.04,0.0,WeatherDisplay:10.37,2013-03-19 12:19:00,
2013-03-19 08:24:00,24.6,12.7,29.77,WNW,292,10.5,13.8,60,0.00,-SN,OVC,0.04,0.0,WeatherDisplay:10.37,2013-03-19 12:24:00,
2013-03-19 08:29:00,24.4,12.9,29.77,NNW,338,10.2,11.5,61,0.00,-SN,OVC,0.04,0.0,WeatherDisplay:10.37,2013-03-19 12:29:00,
2013-03-19 08:34:00,24.3,12.7,29.77,WNW,292,9.8,12.7,61,0.00,-SN,OVC,0.04,0.0,WeatherDisplay:10.37,2013-03-19 12:34:00,
2013-03-19 08:39:00,24.3,12.7,29.77,SW,225,12.8,16.1,61,0.00,-SN,OVC,0.04,0.0,WeatherDisplay:10.37,2013-03-19 12:39:00,
2013-03-19 08:44:00,24.3,12.7,29.77,WNW,292,13.8,15.4,61,0.00,-SN,OVC,0.04,0.0,WeatherDisplay:10.37,2013-03-19 12:44:00,
2013-03-19 08:49:00,24.3,12.4,29.77,WSW,248,9.7,13.8,60,0.00,-SN,OVC,0.04,0.0,WeatherDisplay:10.37,2013-03-19 12:49:00,
2013-03-19 08:54:00,24.4,12.5,29.77,WNW,292,10.9,15.0,60,0.00,-SN,OVC,0.04,0.0,WeatherDisplay:10.37,2013-03-19 12:54:00,
2013-03-19 08:59:00,24.4,12.1,29.77,WSW,248,9.7,12.7,59,0.00,-SN,OVC,0.04,0.0,WeatherDisplay:10.37,2013-03-19 12:59:00,
2013-03-19 09:04:00,24.4,11.8,29.77,WSW,248,10.0,12.7,58,0.00,-SN,OVC,0.04,0.0,WeatherDisplay:10.37,2013-03-19 13:04:00,
2013-03-19 09:09:00,24.6,11.9,29.77,WNW,292,12.8,23.0,58,0.00,-SN,OVC,0.04,0.0,WeatherDisplay:10.37,2013-03-19 13:09:00,
2013-03-19 09:14:00,24.4,11.8,29.77,WNW,292,13.2,18.4,58,0.00,-SN,OVC,0.04,100.0,WeatherDisplay:10.37,2013-03-19 13:14:00,
2013-03-19 09:19:00,24.4,12.1,29.77,WSW,248,11.8,16.1,59,0.00,-SN,OVC,0.04,100.0,WeatherDisplay:10.37,2013-03-19 13:19:00,
2013-03-19 09:24:00,24.4,12.1,29.77,SW,225,12.3,19.9,59,0.00,-SN,OVC,0.04,100.0,WeatherDisplay:10.37,2013-03-19 13:24:00,
2013-03-19 09:29:00,24.6,12.7,29.77,SSW,202,11.2,18.5,60,0.00,-SN,OVC,0.04,100.0,WeatherDisplay:10.37,2013-03-19 13:29:00,
2013-03-19 09:34:00,24.6,12.7,29.77,West,270,15.9,19.6,60,0.00,-SN,OVC,0.04,100.0,WeatherDisplay:10.37,2013-03-19 13:34:00,
2013-03-19 09:39:00,24.6,13.1,29.77,SW,225,15.4,23.5,61,0.00,-SN,OVC,0.04,100.0,WeatherDisplay:10.37,2013-03-19 13:39:00,
2013-03-19 09:44:00,24.8,13.2,29.77,WSW,248,13.0,23.0,61,0.00,-SN,OVC,0.04,0.0,WeatherDisplay:10.37,2013-03-19 13:44:00,
2013-03-19 09:49:00,25.0,13.0,29.77,WSW,244,14.0,20.0,60,0.00,-SN,OVC,0.04,0.0,WeatherDisplay:10.37,2013-03-19 13:49:00,
2013-03-19 09:54:00,25.2,12.8,29.77,WNW,292,10.5,13.8,59,0.00,-SN,OVC,0.04,200.0,WeatherDisplay:10.37,2013-03-19 13:54:00,
2013-03-19 09:59:00,25.3,12.6,29.77,WNW,292,10.2,17.3,58,0.00,-SN,OVC,0.04,200.0,WeatherDisplay:10.37,2013-03-19 13:59:00,
2013-03-19 10:04:00,25.7,12.6,29.77,WSW,248,16.3,21.9,57,0.00,OVC,,0.04,200.0,WeatherDisplay:10.37,2013-03-19 14:04:00,
2013-03-19 10:09:00,25.9,12.3,29.74,WNW,292,14.3,19.6,56,0.00,OVC,,0.04,200.0,WeatherDisplay:10.37,2013-03-19 14:09:00,
2013-03-19 10:15:00,26.1,12.1,29.74,SW,225,16.6,23.0,55,0.00,OVC,,0.04,300.0,WeatherDisplay:10.37,2013-03-19 14:15:00,
2013-03-19 10:20:00,25.9,11.9,29.74,WSW,248,12.5,12.7,55,0.00,OVC,,0.04,300.0,WeatherDisplay:10.37,2013-03-19 14:20:00,
2013-03-19 10:25:00,26.1,11.7,29.77,SSW,202,15.9,24.2,54,0.00,OVC,,0.04,300.0,WeatherDisplay:10.37,2013-03-19 14:25:00,
2013-03-19 10:30:00,26.1,11.7,29.77,WNW,292,13.7,23.2,54,0.00,OVC,,0.04,100.0,WeatherDisplay:10.37,2013-03-19 14:30:00,
2013-03-19 10:35:00,25.9,11.5,29.77,West,270,10.2,17.3,54,0.00,OVC,,0.04,300.0,WeatherDisplay:10.37,2013-03-19 14:35:00,
2013-03-19 10:40:00,26.2,12.2,29.77,WSW,248,5.6,14.7,55,0.00,OVC,,0.04,300.0,WeatherDisplay:10.37,2013-03-19 14:40:00,
2013-03-19 10:45:00,26.6,11.7,29.77,West,270,20.4,25.3,53,0.00,OVC,,0.04,300.0,WeatherDisplay:10.37,2013-03-19 14:45:00,
2013-03-19 10:50:00,26.8,11.9,29.77,SW,225,10.7,13.8,53,0.00,OVC,,0.04,300.0,WeatherDisplay:10.37,2013-03-19 14:50:00,
2013-03-19 10:55:00,26.8,11.9,29.77,WSW,248,7.4,15.0,53,0.00,OVC,,0.04,200.0,WeatherDisplay:10.37,2013-03-19 14:55:00,
2013-03-19 11:00:00,26.8,11.9,29.77,WNW,292,10.2,12.7,53,0.00,OVC,,0.04,300.0,WeatherDisplay:10.37,2013-03-19 15:00:00,
2013-03-19 11:05:00,27.0,12.1,29.77,WNW,292,9.4,19.6,53,0.00,OVC,,0.04,200.0,WeatherDisplay:10.37,2013-03-19 15:05:00,
2013-03-19 11:10:00,26.8,11.9,29.77,SSW,202,7.8,12.7,53,0.00,OVC,,0.04,100.0,WeatherDisplay:10.37,2013-03-19 15:10:00,
2013-03-19 11:15:00,26.4,11.6,29.77,WSW,248,12.1,24.2,53,0.00,OVC,,0.04,200.0,WeatherDisplay:10.37,2013-03-19 15:15:00,
2013-03-19 11:20:00,26.4,11.6,29.77,WSW,248,14.3,15.2,53,0.00,OVC,,0.04,200.0,WeatherDisplay:10.37,2013-03-19 15:20:00,
2013-03-19 11:25:00,26.2,11.4,29.77,WSW,248,9.8,21.9,53,0.00,OVC,,0.04,200.0,WeatherDisplay:10.37,2013-03-19 15:25:00,
2013-03-19 11:30:00,26.2,11.4,29.77,West,270,13.5,17.3,53,0.00,OVC,,0.04,100.0,WeatherDisplay:10.37,2013-03-19 15:30:00,
2013-03-19 11:35:00,26.2,11.4,29.77,WSW,248,11.8,17.5,53,0.00,OVC,,0.04,300.0,WeatherDisplay:10.37,2013-03-19 15:35:00,
2013-03-19 11:40:00,26.2,11.4,29.77,WSW,248,14.3,25.3,53,0.00,OVC,,0.04,100.0,WeatherDisplay:10.37,2013-03-19 15:40:00,
2013-03-19 11:45:00,26.1,11.2,29.77,West,270,9.0,15.0,53,0.00,OVC,,0.04,200.0,WeatherDisplay:10.37,2013-03-19 15:45:00,
2013-03-19 11:50:00,26.1,11.2,29.77,WSW,248,11.4,23.0,53,0.00,OVC,,0.04,100.0,WeatherDisplay:10.37,2013-03-19 15:50:00,
2013-03-19 11:55:00,26.2,11.4,29.74,WNW,292,12.8,17.3,53,0.00,OVC,,0.04,200.0,WeatherDisplay:10.37,2013-03-19 15:55:00,
2013-03-19 12:00:00,26.4,11.6,29.74,NW,315,11.8,14.3,53,0.00,OVC,,0.04,200.0,WeatherDisplay:10.37,2013-03-19 16:00:00,
2013-03-19 12:05:00,26.6,11.7,29.74,West,270,10.9,15.0,53,0.00,OVC,,0.04,300.0,WeatherDisplay:10.37,2013-03-19 16:05:00,
2013-03-19 12:10:00,26.6,11.7,29.77,SW,225,15.4,17.3,53,0.00,OVC,,0.04,300.0,WeatherDisplay:10.37,2013-03-19 16:10:00,
2013-03-19 12:15:00,26.4,11.6,29.77,WNW,292,14.0,24.2,53,0.00,OVC,,0.04,300.0,WeatherDisplay:10.37,2013-03-19 16:15:00,
2013-03-19 12:20:00,26.4,11.6,29.77,WSW,248,11.8,25.3,53,0.00,OVC,,0.04,200.0,WeatherDisplay:10.37,2013-03-19 16:20:00,
2013-03-19 12:25:00,26.6,11.7,29.77,WNW,292,10.5,16.3,53,0.00,OVC,,0.04,300.0,WeatherDisplay:10.37,2013-03-19 16:25:00,
2013-03-19 12:30:00,26.6,11.7,29.77,WSW,248,11.2,18.4,53,0.00,OVC,,0.04,200.0,WeatherDisplay:10.37,2013-03-19 16:30:00,
2013-03-19 12:36:00,26.6,11.7,29.77,WNW,292,9.4,10.4,53,0.00,OVC,,0.04,200.0,WeatherDisplay:10.37,2013-03-19 16:36:00,
2013-03-19 12:41:00,27.0,12.1,29.77,WSW,248,13.2,17.3,53,0.00,OVC,,0.04,200.0,WeatherDisplay:10.37,2013-03-19 16:41:00,
2013-03-19 12:46:00,27.0,12.1,29.77,WSW,248,12.8,16.1,53,0.00,OVC,,0.04,300.0,WeatherDisplay:10.37,2013-03-19 16:46:00,
2013-03-19 12:51:00,27.0,12.1,29.77,WNW,292,20.8,23.0,53,0.00,OVC,,0.04,200.0,WeatherDisplay:10.37,2013-03-19 16:51:00,
2013-03-19 12:56:00,26.8,11.9,29.80,WNW,292,16.1,18.4,53,0.00,OVC,,0.04,200.0,WeatherDisplay:10.37,2013-03-19 16:56:00,
2013-03-19 13:01:00,26.6,11.7,29.80,SSW,202,14.7,24.2,53,0.00,-SN,OVC,0.04,200.0,WeatherDisplay:10.37,2013-03-19 17:01:00,
2013-03-19 13:06:00,27.0,12.1,29.80,West,270,11.4,16.1,53,0.00,-SN,OVC,0.04,300.0,WeatherDisplay:10.37,2013-03-19 17:06:00,
2013-03-19 13:11:00,27.1,12.3,29.80,WSW,248,20.1,23.0,53,0.00,-SN,OVC,0.04,200.0,WeatherDisplay:10.37,2013-03-19 17:11:00,
2013-03-19 13:16:00,26.8,11.9,29.80,WSW,248,13.2,19.6,53,0.00,-SN,OVC,0.04,200.0,WeatherDisplay:10.37,2013-03-19 17:16:00,
2013-03-19 13:21:00,26.8,11.9,29.80,WNW,292,13.5,17.3,53,0.00,-SN,OVC,0.04,200.0,WeatherDisplay:10.37,2013-03-19 17:21:00,
2013-03-19 13:26:00,26.6,11.7,29.80,WNW,292,17.6,23.0,53,0.00,-SN,OVC,0.04,200.0,WeatherDisplay:10.37,2013-03-19 17:26:00,
2013-03-19 13:31:00,26.6,11.7,29.80,WSW,248,16.1,20.7,53,0.00,-SN,OVC,0.04,300.0,WeatherDisplay:10.37,2013-03-19 17:31:00,
2013-03-19 13:36:00,27.0,12.1,29.80,WSW,248,11.8,19.6,53,0.00,-SN,OVC,0.04,400.0,WeatherDisplay:10.37,2013-03-19 17:36:00,
2013-03-19 13:41:00,27.1,12.3,29.80,SW,225,13.7,19.6,53,0.00,-SN,OVC,0.04,300.0,WeatherDisplay:10.37,2013-03-19 17:41:00,
2013-03-19 13:46:00,27.3,12.0,29.80,WNW,292,10.0,23.5,52,0.00,-SN,OVC,0.04,300.0,WeatherDisplay:10.37,2013-03-19 17:46:00,
2013-03-19 13:51:00,27.3,12.0,29.80,WNW,292,14.5,33.4,52,0.00,-SN,OVC,0.04,200.0,WeatherDisplay:10.37,2013-03-19 17:51:00,
2013-03-19 13:56:00,27.5,12.2,29.83,West,270,12.8,20.6,52,0.00,-SN,OVC,0.04,400.0,WeatherDisplay:10.37,2013-03-19 17:56:00,
2013-03-19 14:01:00,27.7,12.8,29.83,WNW,292,12.1,17.3,53,0.00,-SN,OVC,0.04,300.0,WeatherDisplay:10.37,2013-03-19 18:01:00,
2013-03-19 14:06:00,27.7,12.8,29.83,WNW,292,15.4,18.4,53,0.00,-SN,OVC,0.04,300.0,WeatherDisplay:10.37,2013-03-19 18:06:00,
2013-03-19 14:12:00,27.7,12.8,29.83,WSW,248,13.5,16.3,53,0.00,-SN,OVC,0.04,300.0,WeatherDisplay:10.37,2013-03-19 18:12:00,
2013-03-19 14:17:00,27.5,12.6,29.83,WSW,248,12.8,16.1,53,0.00,-SN,OVC,0.04,200.0,WeatherDisplay:10.37,2013-03-19 18:17:00,
2013-03-19 14:22:00,27.3,12.4,29.83,WSW,248,8.1,21.9,53,0.00,-SN,OVC,0.04,200.0,WeatherDisplay:10.37,2013-03-19 18:22:00,
2013-03-19 14:27:00,27.1,12.3,29.83,WSW,248,15.4,21.9,53,0.00,-SN,OVC,0.04,300.0,WeatherDisplay:10.37,2013-03-19 18:27:00,
2013-03-19 14:32:00,27.1,12.3,29.83,WNW,292,9.4,16.1,53,0.00,-SN,OVC,0.04,200.0,WeatherDisplay:10.37,2013-03-19 18:32:00,
2013-03-19 14:37:00,27.1,12.3,29.83,WSW,248,14.7,17.3,53,0.00,-SN,OVC,0.04,200.0,WeatherDisplay:10.37,2013-03-19 18:37:00,
2013-03-19 14:42:00,27.3,12.4,29.83,WNW,292,7.4,17.3,53,0.00,-SN,OVC,0.04,200.0,WeatherDisplay:10.37,2013-03-19 18:42:00,
2013-03-19 14:48:00,27.1,12.3,29.83,WNW,292,13.8,21.3,53,0.00,-SN,OVC,0.04,100.0,WeatherDisplay:10.37,2013-03-19 18:48:00,
2013-03-19 14:53:00,27.0,12.1,29.83,WNW,292,10.7,15.4,53,0.00,-SN,OVC,0.04,0.0,WeatherDisplay:10.37,2013-03-19 18:53:00,
2013-03-19 14:58:00,27.0,12.1,29.83,WNW,292,13.5,16.1,53,0.00,-SN,OVC,0.04,0.0,WeatherDisplay:10.37,2013-03-19 18:58:00,
2013-03-19 15:03:00,27.0,12.1,29.83,WSW,248,9.8,17.3,53,0.00,-SN,OVC,0.04,100.0,WeatherDisplay:10.37,2013-03-19 19:03:00,
2013-03-19 15:08:00,27.0,12.1,29.83,WSW,248,13.2,21.9,53,0.00,-SN,OVC,0.04,200.0,WeatherDisplay:10.37,2013-03-19 19:08:00,
2013-03-19 15:13:00,26.8,11.9,29.83,West,270,15.4,19.6,53,0.00,-SN,OVC,0.04,200.0,WeatherDisplay:10.37,2013-03-19 19:13:00,
2013-03-19 15:18:00,26.8,11.9,29.83,West,270,15.6,24.2,53,0.00,-SN,OVC,0.04,0.0,WeatherDisplay:10.37,2013-03-19 19:18:00,
2013-03-19 15:23:00,27.0,12.1,29.83,West,270,9.7,13.8,53,0.00,-SN,OVC,0.04,200.0,WeatherDisplay:10.37,2013-03-19 19:23:00,
2013-03-19 15:28:00,27.0,12.1,29.83,West,270,17.3,27.6,53,0.00,-SN,OVC,0.04,200.0,WeatherDisplay:10.37,2013-03-19 19:28:00,
2013-03-19 15:33:00,27.1,12.3,29.83,WSW,248,13.7,19.2,53,0.00,-SN,OVC,0.04,100.0,WeatherDisplay:10.37,2013-03-19 19:33:00,
2013-03-19 15:38:00,27.1,12.3,29.83,WSW,248,10.7,10.7,53,0.00,-SN,OVC,0.04,100.0,WeatherDisplay:10.37,2013-03-19 19:38:00,
2013-03-19 15:43:00,27.3,12.4,29.83,West,270,13.5,24.4,53,0.00,-SN,OVC,0.04,200.0,WeatherDisplay:10.37,2013-03-19 19:43:00,
2013-03-19 15:48:00,27.7,12.8,29.83,WSW,248,13.8,17.3,53,0.00,-SN,OVC,0.04,300.0,WeatherDisplay:10.37,2013-03-19 19:48:00,
2013-03-19 15:53:00,27.7,12.8,29.83,WSW,248,14.7,21.9,53,0.00,-SN,OVC,0.04,300.0,WeatherDisplay:10.37,2013-03-19 19:53:00,
2013-03-19 15:58:00,27.9,12.9,29.83,WSW,248,16.6,24.2,53,0.00,-SN,OVC,0.04,300.0,WeatherDisplay:10.37,2013-03-19 19:58:00,
2013-03-19 16:03:00,27.9,12.9,29.83,WSW,248,13.8,16.1,53,0.00,-SN,OVC,0.04,300.0,WeatherDisplay:10.37,2013-03-19 20:03:00,
2013-03-19 16:08:00,28.2,13.3,29.83,WSW,248,8.5,16.1,53,0.00,-SN,OVC,0.04,300.0,WeatherDisplay:10.37,2013-03-19 20:08:00,
2013-03-19 16:13:00,28.4,13.4,29.83,WNW,292,10.0,15.0,53,0.00,-SN,OVC,0.04,200.0,WeatherDisplay:10.37,2013-03-19 20:13:00,
2013-03-19 16:18:00,28.4,13.4,29.83,West,270,16.8,19.6,53,0.00,-SN,OVC,0.04,300.0,WeatherDisplay:10.37,2013-03-19 20:18:00,
2013-03-19 16:23:00,28.6,13.6,29.83,WSW,248,16.8,24.2,53,0.00,-SN,OVC,0.04,300.0,WeatherDisplay:10.37,2013-03-19 20:23:00,
2013-03-19 16:28:00,28.4,13.4,29.83,WSW,248,18.5,28.8,53,0.00,-SN,OVC,0.04,200.0,WeatherDisplay:10.37,2013-03-19 20:28:00,
2013-03-19 16:33:00,28.6,13.6,29.83,WNW,292,15.4,25.3,53,0.00,-SN,OVC,0.04,300.0,WeatherDisplay:10.37,2013-03-19 20:33:00,
2013-03-19 16:38:00,28.6,13.6,29.85,WNW,292,14.7,19.6,53,0.00,-SN,OVC,0.04,200.0,WeatherDisplay:10.37,2013-03-19 20:38:00,
2013-03-19 16:43:00,28.9,13.9,29.85,WSW,248,10.0,19.6,53,0.00,-SN,OVC,0.04,200.0,WeatherDisplay:10.37,2013-03-19 20:43:00,
2013-03-19 16:48:00,28.8,13.8,29.85,West,270,16.3,21.9,53,0.00,-SN,OVC,0.04,200.0,WeatherDisplay:10.37,2013-03-19 20:48:00,
2013-03-19 16:53:00,28.8,13.8,29.85,WSW,248,10.5,20.8,53,0.00,-SN,OVC,0.04,200.0,WeatherDisplay:10.37,2013-03-19 20:53:00,
2013-03-19 16:58:00,28.8,13.8,29.85,WNW,292,14.5,25.3,53,0.00,-SN,OVC,0.04,200.0,WeatherDisplay:10.37,2013-03-19 20:58:00,
2013-03-19 17:03:00,28.9,13.9,29.85,WNW,292,11.4,16.1,53,0.00,-SN,OVC,0.04,200.0,WeatherDisplay:10.37,2013-03-19 21:03:00,
2013-03-19 17:08:00,28.9,13.9,29.85,SW,225,12.5,19.6,53,0.00,-SN,OVC,0.04,200.0,WeatherDisplay:10.37,2013-03-19 21:08:00,
2013-03-19 17:13:00,28.9,13.9,29.85,WNW,292,10.2,25.3,53,0.00,-SN,OVC,0.04,100.0,WeatherDisplay:10.37,2013-03-19 21:13:00,
2013-03-19 17:18:00,29.1,14.1,29.85,West,270,15.4,23.0,53,0.00,-SN,OVC,0.04,200.0,WeatherDisplay:10.37,2013-03-19 21:18:00,
2013-03-19 17:23:00,29.7,14.6,29.85,West,270,9.0,17.3,53,0.00,-SN,OVC,0.04,200.0,WeatherDisplay:10.37,2013-03-19 21:23:00,
2013-03-19 17:28:00,29.8,14.8,29.85,WNW,292,10.5,18.5,53,0.00,-SN,OVC,0.04,100.0,WeatherDisplay:10.37,2013-03-19 21:28:00,
2013-03-19 17:33:00,29.8,14.3,29.85,WSW,248,10.2,20.7,52,0.00,-SN,OVC,0.04,100.0,WeatherDisplay:10.37,2013-03-19 21:33:00,
2013-03-19 17:38:00,29.7,14.2,29.85,WNW,292,16.8,21.9,52,0.00,-SN,OVC,0.04,100.0,WeatherDisplay:10.37,2013-03-19 21:38:00,
2013-03-19 17:43:00,29.5,14.0,29.85,WSW,248,13.8,19.6,52,0.00,-SN,OVC,0.04,100.0,WeatherDisplay:10.37,2013-03-19 21:43:00,
2013-03-19 17:48:00,29.5,14.0,29.85,WNW,292,15.2,24.2,52,0.00,-SN,OVC,0.04,100.0,WeatherDisplay:10.37,2013-03-19 21:48:00,
2013-03-19 17:53:00,29.5,14.0,29.88,WNW,292,13.5,19.6,52,0.00,-SN,OVC,0.04,100.0,WeatherDisplay:10.37,2013-03-19 21:53:00,
2013-03-19 17:58:00,29.5,14.0,29.88,West,270,12.3,17.3,52,0.00,-SN,OVC,0.04,0.0,WeatherDisplay:10.37,2013-03-19 21:58:00,
2013-03-19 18:03:00,29.5,14.0,29.88,West,270,13.2,23.0,52,0.00,-SN,OVC,0.04,0.0,WeatherDisplay:10.37,2013-03-19 22:03:00,
2013-03-19 18:09:00,29.5,14.0,29.88,WNW,292,9.0,19.4,52,0.00,-SN,OVC,0.04,0.0,WeatherDisplay:10.37,2013-03-19 22:09:00,
2013-03-19 18:14:00,29.5,14.4,29.88,WNW,292,11.8,17.8,53,0.00,-SN,OVC,0.04,0.0,WeatherDisplay:10.37,2013-03-19 22:14:00,
2013-03-19 18:19:00,29.5,14.4,29.88,WSW,248,12.8,13.8,53,0.00,-SN,OVC,0.04,0.0,WeatherDisplay:10.37,2013-03-19 22:19:00,
2013-03-19 18:24:00,29.5,14.0,29.88,SW,225,9.0,15.0,52,0.00,-SN,OVC,0.04,0.0,WeatherDisplay:10.37,2013-03-19 22:24:00,
2013-03-19 18:29:00,29.5,14.0,29.88,WNW,292,13.0,16.1,52,0.00,-SN,OVC,0.04,0.0,WeatherDisplay:10.37,2013-03-19 22:29:00,
2013-03-19 18:34:00,29.3,13.8,29.88,WNW,292,11.8,11.8,52,0.00,-SN,OVC,0.04,0.0,WeatherDisplay:10.37,2013-03-19 22:34:00,
2013-03-19 18:39:00,29.3,13.8,29.88,WNW,292,15.6,17.3,52,0.00,-SN,OVC,0.04,0.0,WeatherDisplay:10.37,2013-03-19 22:39:00,
2013-03-19 18:44:00,29.3,13.8,29.88,North,0,15.4,19.9,52,0.00,-SN,OVC,0.04,0.0,WeatherDisplay:10.37,2013-03-19 22:44:00,
2013-03-19 18:49:00,29.1,13.7,29.88,WSW,248,13.5,22.8,52,0.00,-SN,OVC,0.04,0.0,WeatherDisplay:10.37,2013-03-19 22:49:00,
2013-03-19 18:54:00,29.1,13.7,29.88,WNW,292,12.3,15.0,52,0.00,-SN,OVC,0.04,0.0,WeatherDisplay:10.37,2013-03-19 22:54:00,
2013-03-19 18:59:00,28.9,13.5,29.88,SSE,158,10.7,15.2,52,0.00,-SN,OVC,0.04,0.0,WeatherDisplay:10.37,2013-03-19 22:59:00,
2013-03-19 19:04:00,28.9,13.5,29.88,WNW,292,7.8,15.0,52,0.00,OVC,,0.04,0.0,WeatherDisplay:10.37,2013-03-19 23:04:00,
2013-03-19 19:09:00,28.9,13.5,29.88,West,270,10.0,13.8,52,0.00,OVC,,0.04,0.0,WeatherDisplay:10.37,2013-03-19 23:09:00,
2013-03-19 19:14:00,28.9,13.5,29.88,West,270,13.2,17.3,52,0.00,OVC,,0.04,0.0,WeatherDisplay:10.37,2013-03-19 23:14:00,
2013-03-19 19:19:00,28.9,13.5,29.88,WNW,292,9.8,13.8,52,0.00,OVC,,0.04,0.0,WeatherDisplay:10.37,2013-03-19 23:19:00,
2013-03-19 19:24:00,28.9,13.5,29.88,SW,225,12.1,17.3,52,0.00,OVC,,0.04,0.0,WeatherDisplay:10.37,2013-03-19 23:24:00,
2013-03-19 19:30:00,28.9,13.5,29.88,WSW,248,9.7,15.0,52,0.00,OVC,,0.04,0.0,WeatherDisplay:10.37,2013-03-19 23:30:00,
2013-03-19 19:35:00,28.9,13.5,29.88,West,270,9.2,15.0,52,0.00,OVC,,0.04,0.0,WeatherDisplay:10.37,2013-03-19 23:35:00,
2013-03-19 19:40:00,28.9,13.5,29.88,WSW,248,8.1,17.3,52,0.00,OVC,,0.04,0.0,WeatherDisplay:10.37,2013-03-19 23:40:00,
2013-03-19 19:45:00,28.8,13.3,29.88,WSW,248,9.8,13.8,52,0.00,OVC,,0.04,0.0,WeatherDisplay:10.37,2013-03-19 23:45:00,
2013-03-19 19:50:00,28.9,13.5,29.88,SSW,202,10.7,13.8,52,0.00,OVC,,0.04,0.0,WeatherDisplay:10.37,2013-03-19 23:50:00,
2013-03-19 19:55:00,28.9,13.5,29.88,NW,315,6.2,15.0,52,0.00,OVC,,0.04,0.0,WeatherDisplay:10.37,2013-03-19 23:55:00,
2013-03-19 20:00:00,28.9,13.9,29.88,SW,225,6.4,9.2,53,0.00,OVC,,0.04,0.0,WeatherDisplay:10.37,2013-03-20 00:00:00,
2013-03-19 20:05:00,28.9,13.5,29.88,NNW,338,7.8,13.8,52,0.00,OVC,,0.04,0.0,WeatherDisplay:10.37,2013-03-20 00:05:00,
2013-03-19 20:10:00,28.8,13.3,29.91,West,270,9.0,12.7,52,0.00,OVC,,0.04,0.0,WeatherDisplay:10.37,2013-03-20 00:10:00,
2013-03-19 20:15:00,28.6,13.2,29.91,WNW,292,9.0,12.7,52,0.00,OVC,,0.04,0.0,WeatherDisplay:10.37,2013-03-20 00:15:00,
2013-03-19 20:20:00,28.6,13.2,29.91,WNW,292,6.7,9.2,52,0.00,OVC,,0.04,0.0,WeatherDisplay:10.37,2013-03-20 00:20:00,
2013-03-19 20:25:00,28.6,13.2,29.91,WNW,292,6.4,10.4,52,0.00,OVC,,0.04,0.0,WeatherDisplay:10.37,2013-03-20 00:25:00,
2013-03-19 20:30:00,28.6,13.2,29.91,WNW,292,9.2,17.3,52,0.00,OVC,,0.04,0.0,WeatherDisplay:10.37,2013-03-20 00:30:00,
2013-03-19 20:35:00,28.4,13.4,29.91,WNW,292,6.0,12.3,53,0.00,OVC,,0.04,0.0,WeatherDisplay:10.37,2013-03-20 00:35:00,
2013-03-19 20:40:00,28.4,13.4,29.91,West,270,7.8,13.7,53,0.00,OVC,,0.04,0.0,WeatherDisplay:10.37,2013-03-20 00:40:00,
2013-03-19 20:45:00,28.4,13.4,29.91,West,270,9.2,12.7,53,0.00,OVC,,0.04,0.0,WeatherDisplay:10.37,2013-03-20 00:45:00,
2013-03-19 20:50:00,28.2,13.3,29.91,WNW,292,8.5,11.5,53,0.00,OVC,,0.04,0.0,WeatherDisplay:10.37,2013-03-20 00:50:00,
2013-03-19 20:55:00,28.2,13.3,29.91,WNW,292,13.2,16.1,53,0.00,OVC,,0.04,0.0,WeatherDisplay:10.37,2013-03-20 00:55:00,
2013-03-19 21:00:00,28.2,13.3,29.91,WSW,248,9.8,13.2,53,0.00,OVC,,0.04,0.0,WeatherDisplay:10.37,2013-03-20 01:00:00,
2013-03-19 21:05:00,28.2,13.3,29.91,WNW,292,15.9,17.3,53,0.00,OVC,,0.04,0.0,WeatherDisplay:10.37,2013-03-20 01:05:00,
2013-03-19 21:10:00,28.2,13.3,29.94,WNW,292,10.5,18.4,53,0.00,OVC,,0.04,0.0,WeatherDisplay:10.37,2013-03-20 01:10:00,
2013-03-19 21:15:00,28.4,13.4,29.94,WSW,248,16.3,18.4,53,0.00,OVC,,0.04,0.0,WeatherDisplay:10.37,2013-03-20 01:15:00,
2013-03-19 21:20:00,28.4,13.4,29.94,WNW,292,8.1,14.7,53,0.00,OVC,,0.04,0.0,WeatherDisplay:10.37,2013-03-20 01:20:00,
2013-03-19 21:25:00,28.2,12.8,29.94,West,270,10.7,18.4,52,0.00,OVC,,0.04,0.0,WeatherDisplay:10.37,2013-03-20 01:25:00,
2013-03-19 21:30:00,28.2,12.8,29.94,West,270,10.7,13.0,52,0.00,OVC,,0.04,0.0,WeatherDisplay:10.37,2013-03-20 01:30:00,
2013-03-19 21:35:00,28.0,12.7,29.94,WNW,292,11.2,12.7,52,0.00,OVC,,0.04,0.0,WeatherDisplay:10.37,2013-03-20 01:35:00,
2013-03-19 21:40:00,28.0,12.7,29.94,WNW,292,9.4,12.7,52,0.00,OVC,,0.04,0.0,WeatherDisplay:10.37,2013-03-20 01:40:00,
2013-03-19 21:45:00,28.0,12.7,29.94,WNW,292,3.3,9.2,52,0.00,OVC,,0.04,0.0,WeatherDisplay:10.37,2013-03-20 01:45:00,
2013-03-19 21:50:00,27.9,12.5,29.94,WSW,248,6.4,11.5,52,0.00,OVC,,0.04,0.0,WeatherDisplay:10.37,2013-03-20 01:50:00,
2013-03-19 21:55:00,27.9,12.5,29.94,WNW,292,7.6,8.1,52,0.00,OVC,,0.04,0.0,WeatherDisplay:10.37,2013-03-20 01:55:00,
2013-03-19 22:00:00,27.9,12.5,29.94,SE,135,6.7,8.1,52,0.00,BKN,OVC,0.04,0.0,WeatherDisplay:10.37,2013-03-20 02:00:00,
2013-03-19 22:05:00,27.7,12.3,29.94,WNW,292,6.9,15.9,52,0.00,BKN,OVC,0.04,0.0,WeatherDisplay:10.37,2013-03-20 02:05:00,
2013-03-19 22:10:00,27.7,12.3,29.94,NNW,338,7.1,9.2,52,0.00,BKN,OVC,0.04,0.0,WeatherDisplay:10.37,2013-03-20 02:10:00,
2013-03-19 22:15:00,27.7,12.3,29.94,WNW,292,8.7,11.5,52,0.00,BKN,OVC,0.04,0.0,WeatherDisplay:10.37,2013-03-20 02:15:00,
2013-03-19 22:20:00,27.5,12.2,29.94,WSW,248,7.8,10.4,52,0.00,BKN,OVC,0.04,0.0,WeatherDisplay:10.37,2013-03-20 02:20:00,
2013-03-19 22:25:00,27.5,12.2,29.94,WNW,292,6.2,13.2,52,0.00,BKN,OVC,0.04,0.0,WeatherDisplay:10.37,2013-03-20 02:25:00,
2013-03-19 22:30:00,27.5,12.2,29.94,WSW,248,8.1,16.3,52,0.00,BKN,OVC,0.04,0.0,WeatherDisplay:10.37,2013-03-20 02:30:00,
2013-03-19 22:35:00,27.5,12.2,29.94,WNW,292,7.4,15.0,52,0.00,BKN,OVC,0.04,0.0,WeatherDisplay:10.37,2013-03-20 02:35:00,
2013-03-19 22:40:00,27.3,12.0,29.94,WNW,292,7.8,7.8,52,0.00,BKN,OVC,0.04,0.0,WeatherDisplay:10.37,2013-03-20 02:40:00,
2013-03-19 22:45:00,27.3,12.0,29.94,SW,225,7.1,7.1,52,0.00,BKN,OVC,0.04,0.0,WeatherDisplay:10.37,2013-03-20 02:45:00,
2013-03-19 22:50:00,27.3,12.0,29.94,WSW,248,8.5,11.5,52,0.00,BKN,OVC,0.04,0.0,WeatherDisplay:10.37,2013-03-20 02:50:00,
2013-03-19 22:55:00,27.3,12.0,29.94,WNW,292,13.5,15.2,52,0.00,BKN,OVC,0.04,0.0,WeatherDisplay:10.37,2013-03-20 02:55:00,
2013-03-19 23:00:00,27.3,12.0,29.94,WSW,248,7.6,10.4,52,0.00,FEW,OVC,0.04,0.0,WeatherDisplay:10.37,2013-03-20 03:00:00,
2013-03-19 23:05:00,27.3,12.0,29.94,NW,315,6.2,15.0,52,0.00,FEW,OVC,0.04,0.0,WeatherDisplay:10.37,2013-03-20 03:05:00,
2013-03-19 23:10:00,27.3,12.0,29.97,WSW,248,6.7,10.2,52,0.00,FEW,OVC,0.04,0.0,WeatherDisplay:10.37,2013-03-20 03:10:00,
2013-03-19 23:15:00,27.3,12.0,29.97,WNW,292,9.0,11.5,52,0.00,FEW,OVC,0.04,0.0,WeatherDisplay:10.37,2013-03-20 03:15:00,
2013-03-19 23:20:00,27.3,12.0,29.97,WSW,248,9.4,11.5,52,0.00,FEW,OVC,0.04,0.0,WeatherDisplay:10.37,2013-03-20 03:20:00,
2013-03-19 23:25:00,27.3,12.0,29.94,WNW,292,6.7,12.8,52,0.00,FEW,OVC,0.04,0.0,WeatherDisplay:10.37,2013-03-20 03:25:00,
2013-03-19 23:30:00,27.3,12.0,29.94,WSW,248,4.9,12.7,52,0.00,FEW,OVC,0.04,0.0,WeatherDisplay:10.37,2013-03-20 03:30:00,
2013-03-19 23:35:00,27.3,12.0,29.94,WNW,292,8.5,15.4,52,0.00,FEW,OVC,0.04,0.0,WeatherDisplay:10.37,2013-03-20 03:35:00,
2013-03-19 23:40:00,27.3,12.0,29.94,WNW,292,6.2,10.7,52,0.00,FEW,OVC,0.04,0.0,WeatherDisplay:10.37,2013-03-20 03:40:00,
2013-03-19 23:45:00,27.3,12.0,29.94,West,270,8.5,12.7,52,0.00,FEW,OVC,0.04,0.0,WeatherDisplay:10.37,2013-03-20 03:45:00,
2013-03-19 23:50:00,27.3,12.0,29.94,WNW,292,8.5,11.5,52,0.00,FEW,OVC,0.04,0.0,WeatherDisplay:10.37,2013-03-20 03:50:00,
2013-03-19 23:55:00,27.3,12.0,29.94,WNW,292,6.9,10.4,52,0.00,FEW,OVC,0.04,0.0,WeatherDisplay:10.37,2013-03-20 03:55:00,